createdAt,value
2024-03-24T00:00:05.794Z,4.74
2024-03-24T00:00:59.268Z,4.79
2024-03-24T00:02:00.480Z,4.80
2024-03-24T00:02:59.843Z,4.83
2024-03-24T00:04:00.387Z,4.84
2024-03-24T00:04:59.305Z,4.84
2024-03-24T00:05:59.222Z,4.86
2024-03-24T00:06:59.224Z,4.80
2024-03-24T00:07:59.215Z,4.74
2024-03-24T00:08:59.296Z,4.77
2024-03-24T00:09:59.251Z,4.71
2024-03-24T00:10:59.196Z,4.75
2024-03-24T00:11:59.190Z,4.74
2024-03-24T00:12:59.311Z,4.77
2024-03-24T00:13:59.227Z,4.77
2024-03-24T00:14:59.261Z,4.75
2024-03-24T00:15:59.286Z,4.71
2024-03-24T00:16:59.152Z,4.68
2024-03-24T00:17:59.091Z,4.69
2024-03-24T00:18:59.106Z,4.71
2024-03-24T00:19:59.061Z,4.69
2024-03-24T00:20:59.069Z,4.65
2024-03-24T00:21:59.048Z,4.57
2024-03-24T00:22:59.029Z,4.51
2024-03-24T00:23:59.058Z,4.50
2024-03-24T00:24:59.026Z,4.43
2024-03-24T00:25:59.007Z,4.44
2024-03-24T00:26:58.996Z,4.38
2024-03-24T00:27:59.066Z,4.31
2024-03-24T00:28:59.011Z,4.26
2024-03-24T00:29:58.960Z,4.26
2024-03-24T00:30:58.963Z,4.29
2024-03-24T00:31:58.962Z,4.31
2024-03-24T00:33:00.099Z,4.38
2024-03-24T00:33:58.932Z,4.38
2024-03-24T00:34:58.925Z,4.39
2024-03-24T00:35:58.909Z,4.43
2024-03-24T00:36:58.924Z,4.39
2024-03-24T00:37:58.904Z,4.43
2024-03-24T00:38:58.892Z,4.43
2024-03-24T00:39:58.882Z,4.42
2024-03-24T00:40:58.856Z,4.43
2024-03-24T00:41:58.892Z,4.43
2024-03-24T00:42:58.862Z,4.39
2024-03-24T00:43:58.852Z,4.36
2024-03-24T00:44:58.824Z,4.35
2024-03-24T00:45:58.808Z,4.31
2024-03-24T00:46:58.835Z,4.26
2024-03-24T00:47:58.790Z,4.21
2024-03-24T00:48:58.794Z,4.18
2024-03-24T00:49:58.779Z,4.17
2024-03-24T00:50:58.778Z,4.14
2024-03-24T00:51:58.778Z,4.20
2024-03-24T00:52:58.751Z,4.29
2024-03-24T00:53:58.734Z,4.24
2024-03-24T00:54:58.740Z,4.21
2024-03-24T00:55:58.731Z,4.21
2024-03-24T00:56:58.720Z,4.16
2024-03-24T00:57:58.690Z,4.14
2024-03-24T00:58:58.705Z,4.14
2024-03-24T00:59:58.674Z,4.14
2024-03-24T01:00:58.693Z,4.11
2024-03-24T01:01:58.675Z,4.06
2024-03-24T01:02:58.657Z,4.06
2024-03-24T01:03:58.648Z,4.00
2024-03-24T01:04:58.638Z,3.96
2024-03-24T01:05:58.638Z,3.95
2024-03-24T01:06:58.628Z,3.95
2024-03-24T01:07:58.620Z,3.92
2024-03-24T01:08:58.609Z,3.93
2024-03-24T01:09:58.631Z,3.89
2024-03-24T01:10:58.595Z,3.92
2024-03-24T01:11:58.559Z,3.96
2024-03-24T01:12:58.564Z,3.92
2024-03-24T01:13:58.553Z,3.92
2024-03-24T01:14:58.583Z,3.96
2024-03-24T01:15:58.527Z,3.95
2024-03-24T01:16:58.512Z,3.96
2024-03-24T01:17:58.505Z,3.92
2024-03-24T01:18:58.496Z,3.88
2024-03-24T01:19:58.518Z,3.84
2024-03-24T01:20:58.550Z,3.81
2024-03-24T01:21:58.469Z,3.78
2024-03-24T01:22:58.470Z,3.80
2024-03-24T01:23:58.509Z,3.80
2024-03-24T01:24:58.473Z,3.82
2024-03-24T01:25:58.424Z,3.92
2024-03-24T01:26:58.459Z,3.92
2024-03-24T01:27:58.435Z,3.96
2024-03-24T01:28:58.448Z,3.95
2024-03-24T01:29:58.413Z,3.95
2024-03-24T01:30:58.383Z,3.89
2024-03-24T01:31:58.405Z,3.95
2024-03-24T01:32:58.412Z,3.99
2024-03-24T01:33:58.420Z,3.95
2024-03-24T01:34:58.357Z,3.90
2024-03-24T01:35:58.358Z,3.93
2024-03-24T01:36:58.335Z,3.95
2024-03-24T01:37:58.370Z,3.93
2024-03-24T01:38:58.338Z,3.95
2024-03-24T01:39:58.298Z,3.95
2024-03-24T01:40:58.303Z,3.93
2024-03-24T01:41:58.280Z,3.95
2024-03-24T01:42:58.319Z,3.98
2024-03-24T01:43:58.245Z,3.95
2024-03-24T01:44:58.257Z,3.92
2024-03-24T01:45:58.240Z,3.95
2024-03-24T01:46:58.266Z,3.95
2024-03-24T01:47:58.243Z,4.04
2024-03-24T01:48:58.223Z,4.07
2024-03-24T01:49:58.195Z,4.14
2024-03-24T01:50:58.190Z,4.18
2024-03-24T01:51:58.202Z,4.17
2024-03-24T01:52:58.194Z,4.24
2024-03-24T01:53:58.168Z,4.24
2024-03-24T01:54:58.158Z,4.28
2024-03-24T01:55:58.140Z,4.34
2024-03-24T01:56:58.161Z,4.35
2024-03-24T01:57:58.133Z,4.34
2024-03-24T01:58:58.145Z,4.35
2024-03-24T01:59:58.118Z,4.36
2024-03-24T02:00:58.091Z,4.34
2024-03-24T02:01:58.113Z,4.35
2024-03-24T02:02:58.076Z,4.36
2024-03-24T02:03:58.068Z,4.43
2024-03-24T02:04:58.087Z,4.46
2024-03-24T02:05:58.073Z,4.46
2024-03-24T02:06:58.055Z,4.47
2024-03-24T02:07:58.019Z,4.46
2024-03-24T02:08:58.038Z,4.46
2024-03-24T02:09:58.019Z,4.49
2024-03-24T02:10:58.038Z,4.50
2024-03-24T02:11:57.993Z,4.53
2024-03-24T02:12:57.994Z,4.53
2024-03-24T02:13:57.974Z,4.57
2024-03-24T02:14:57.964Z,4.59
2024-03-24T02:15:57.983Z,4.61
2024-03-24T02:16:57.950Z,4.59
2024-03-24T02:18:00.485Z,4.61
2024-03-24T02:18:57.919Z,4.62
2024-03-24T02:19:57.942Z,4.59
2024-03-24T02:20:57.985Z,4.59
2024-03-24T02:21:57.908Z,4.59
2024-03-24T02:22:57.889Z,4.61
2024-03-24T02:23:57.878Z,4.61
2024-03-24T02:24:57.945Z,4.64
2024-03-24T02:25:57.866Z,4.67
2024-03-24T02:26:57.870Z,4.68
2024-03-24T02:27:57.858Z,4.67
2024-03-24T02:28:57.856Z,4.69
2024-03-24T02:29:57.877Z,4.71
2024-03-24T02:30:57.816Z,4.74
2024-03-24T02:31:57.816Z,4.74
2024-03-24T02:32:57.783Z,4.74
2024-03-24T02:33:57.814Z,4.75
2024-03-24T02:34:57.825Z,4.77
2024-03-24T02:35:57.771Z,4.79
2024-03-24T02:36:57.750Z,4.80
2024-03-24T02:37:57.742Z,4.83
2024-03-24T02:38:57.753Z,4.83
2024-03-24T02:39:57.735Z,4.83
2024-03-24T02:40:57.714Z,4.83
2024-03-24T02:41:57.707Z,4.84
2024-03-24T02:42:57.716Z,4.86
2024-03-24T02:43:57.703Z,4.86
2024-03-24T02:44:57.674Z,4.86
2024-03-24T02:45:57.711Z,4.88
2024-03-24T02:46:57.675Z,4.88
2024-03-24T02:47:57.698Z,4.88
2024-03-24T02:48:57.671Z,4.88
2024-03-24T02:49:57.672Z,4.91
2024-03-24T02:50:57.619Z,4.93
2024-03-24T02:51:57.613Z,4.93
2024-03-24T02:52:57.658Z,4.93
2024-03-24T02:53:57.610Z,4.93
2024-03-24T02:54:57.602Z,4.91
2024-03-24T02:55:57.576Z,4.93
2024-03-24T02:56:57.604Z,4.93
2024-03-24T02:57:57.574Z,4.90
2024-03-24T02:58:57.551Z,4.88
2024-03-24T02:59:57.551Z,4.87
2024-03-24T03:00:57.518Z,4.87
2024-03-24T03:01:57.549Z,4.84
2024-03-24T03:02:57.518Z,4.80
2024-03-24T03:03:57.486Z,4.79
2024-03-24T03:04:57.497Z,4.79
2024-03-24T03:05:57.473Z,4.77
2024-03-24T03:06:57.510Z,4.79
2024-03-24T03:07:57.451Z,4.74
2024-03-24T03:08:57.467Z,4.69
2024-03-24T03:09:57.464Z,4.68
2024-03-24T03:10:57.476Z,4.67
2024-03-24T03:11:57.476Z,4.67
2024-03-24T03:12:57.423Z,4.67
2024-03-24T03:13:57.405Z,4.64
2024-03-24T03:14:57.415Z,4.65
2024-03-24T03:15:57.409Z,4.62
2024-03-24T03:16:57.357Z,4.62
2024-03-24T03:17:57.363Z,4.59
2024-03-24T03:18:57.357Z,4.53
2024-03-24T03:19:57.360Z,4.51
2024-03-24T03:20:57.375Z,4.47
2024-03-24T03:21:57.317Z,4.44
2024-03-24T03:22:57.344Z,4.46
2024-03-24T03:23:57.329Z,4.43
2024-03-24T03:24:57.314Z,4.44
2024-03-24T03:25:57.321Z,4.43
2024-03-24T03:26:57.268Z,4.39
2024-03-24T03:27:57.271Z,4.39
2024-03-24T03:28:57.278Z,4.39
2024-03-24T03:29:57.282Z,4.38
2024-03-24T03:30:57.220Z,4.36
2024-03-24T03:31:57.223Z,4.34
2024-03-24T03:32:57.209Z,4.31
2024-03-24T03:33:57.226Z,4.31
2024-03-24T03:34:57.225Z,4.31
2024-03-24T03:35:57.221Z,4.28
2024-03-24T03:36:57.208Z,4.26
2024-03-24T03:37:57.162Z,4.28
2024-03-24T03:38:57.223Z,4.25
2024-03-24T03:39:57.192Z,4.25
2024-03-24T03:40:57.194Z,4.21
2024-03-24T03:41:57.198Z,4.20
2024-03-24T03:42:57.125Z,4.20
2024-03-24T03:43:57.202Z,4.16
2024-03-24T03:44:57.139Z,4.14
2024-03-24T03:45:57.106Z,4.14
2024-03-24T03:46:57.087Z,4.13
2024-03-24T03:47:57.075Z,4.11
2024-03-24T03:48:57.122Z,4.13
2024-03-24T03:49:57.073Z,4.14
2024-03-24T03:50:57.062Z,4.13
2024-03-24T03:51:57.075Z,4.10
2024-03-24T03:52:57.024Z,4.11
2024-03-24T03:53:57.059Z,4.13
2024-03-24T03:54:57.047Z,4.13
2024-03-24T03:55:57.001Z,4.11
2024-03-24T03:56:56.990Z,4.13
2024-03-24T03:57:56.999Z,4.11
2024-03-24T03:58:56.996Z,4.14
2024-03-24T03:59:56.971Z,4.11
2024-03-24T04:00:56.971Z,4.10
2024-03-24T04:01:56.964Z,4.11
2024-03-24T04:02:56.958Z,4.07
2024-03-24T04:03:56.932Z,4.04
2024-03-24T04:04:56.919Z,4.04
2024-03-24T04:05:56.911Z,4.02
2024-03-24T04:06:56.935Z,4.02
2024-03-24T04:07:56.901Z,4.00
2024-03-24T04:08:56.881Z,4.02
2024-03-24T04:09:56.882Z,4.04
2024-03-24T04:10:56.858Z,3.99
2024-03-24T04:11:56.856Z,3.99
2024-03-24T04:12:56.863Z,3.98
2024-03-24T04:13:56.823Z,3.98
2024-03-24T04:14:56.830Z,3.96
2024-03-24T04:15:56.824Z,3.95
2024-03-24T04:16:56.847Z,3.95
2024-03-24T04:17:56.783Z,3.93
2024-03-24T04:18:56.807Z,3.90
2024-03-24T04:19:56.763Z,3.92
2024-03-24T04:20:56.785Z,3.92
2024-03-24T04:21:56.777Z,3.92
2024-03-24T04:22:56.753Z,3.89
2024-03-24T04:23:56.674Z,3.88
2024-03-24T04:24:56.681Z,3.84
2024-03-24T04:25:56.671Z,3.82
2024-03-24T04:26:56.680Z,3.82
2024-03-24T04:27:56.644Z,3.82
2024-03-24T04:28:56.623Z,3.82
2024-03-24T04:29:56.659Z,3.82
2024-03-24T04:30:56.663Z,3.82
2024-03-24T04:31:56.638Z,3.84
2024-03-24T04:32:56.590Z,3.78
2024-03-24T04:33:56.600Z,3.77
2024-03-24T04:34:56.621Z,3.81
2024-03-24T04:35:56.618Z,3.82
2024-03-24T04:36:56.575Z,3.84
2024-03-24T04:37:56.548Z,3.84
2024-03-24T04:38:56.537Z,3.81
2024-03-24T04:39:56.561Z,3.82
2024-03-24T04:40:56.525Z,3.78
2024-03-24T04:41:56.522Z,3.80
2024-03-24T04:42:56.507Z,3.77
2024-03-24T04:43:56.506Z,3.80
2024-03-24T04:44:56.524Z,3.78
2024-03-24T04:45:56.479Z,3.78
2024-03-24T04:46:56.465Z,3.75
2024-03-24T04:47:56.449Z,3.75
2024-03-24T04:48:56.476Z,3.74
2024-03-24T04:49:56.451Z,3.74
2024-03-24T04:50:56.456Z,3.74
2024-03-24T04:51:56.420Z,3.75
2024-03-24T04:52:56.441Z,3.75
2024-03-24T04:53:56.418Z,3.72
2024-03-24T04:54:56.404Z,3.74
2024-03-24T04:55:56.408Z,3.71
2024-03-24T04:56:56.408Z,3.71
2024-03-24T04:57:56.364Z,3.74
2024-03-24T04:58:56.413Z,3.75
2024-03-24T04:59:56.355Z,3.75
2024-03-24T05:00:56.327Z,3.77
2024-03-24T05:01:56.324Z,3.77
2024-03-24T05:02:56.358Z,3.78
2024-03-24T05:03:56.319Z,3.74
2024-03-24T05:04:56.292Z,3.74
2024-03-24T05:05:56.276Z,3.74
2024-03-24T05:06:56.274Z,3.75
2024-03-24T05:07:56.276Z,3.68
2024-03-24T05:08:56.241Z,3.63
2024-03-24T05:09:56.250Z,3.57
2024-03-24T05:10:56.242Z,3.53
2024-03-24T05:11:56.228Z,3.59
2024-03-24T05:12:56.246Z,3.63
2024-03-24T05:13:56.228Z,3.64
2024-03-24T05:14:56.198Z,3.67
2024-03-24T05:15:56.208Z,3.71
2024-03-24T05:16:56.185Z,3.70
2024-03-24T05:17:56.182Z,3.68
2024-03-24T05:18:56.163Z,3.68
2024-03-24T05:19:56.172Z,3.68
2024-03-24T05:20:56.137Z,3.67
2024-03-24T05:21:56.247Z,3.67
2024-03-24T05:22:56.119Z,3.64
2024-03-24T05:23:56.135Z,3.67
2024-03-24T05:24:56.130Z,3.72
2024-03-24T05:25:56.097Z,3.72
2024-03-24T05:26:56.098Z,3.74
2024-03-24T05:27:56.128Z,3.77
2024-03-24T05:28:56.269Z,3.81
2024-03-24T05:29:56.059Z,3.84
2024-03-24T05:30:56.140Z,3.86
2024-03-24T05:31:56.062Z,3.93
2024-03-24T05:32:56.028Z,3.95
2024-03-24T05:33:56.027Z,3.95
2024-03-24T05:34:56.008Z,3.98
2024-03-24T05:35:56.011Z,4.02
2024-03-24T05:36:55.997Z,4.06
2024-03-24T05:37:55.987Z,4.06
2024-03-24T05:38:55.958Z,4.11
2024-03-24T05:39:55.971Z,4.13
2024-03-24T05:40:55.980Z,4.13
2024-03-24T05:41:55.944Z,4.16
2024-03-24T05:42:55.946Z,4.18
2024-03-24T05:43:55.956Z,4.21
2024-03-24T05:44:55.944Z,4.21
2024-03-24T05:45:55.948Z,4.28
2024-03-24T05:46:55.898Z,4.34
2024-03-24T05:47:55.891Z,4.36
2024-03-24T05:48:55.888Z,4.38
2024-03-24T05:49:55.905Z,4.42
2024-03-24T05:50:55.922Z,4.46
2024-03-24T05:51:55.884Z,4.47
2024-03-24T05:52:55.878Z,4.47
2024-03-24T05:53:55.823Z,4.50
2024-03-24T05:54:55.838Z,4.49
2024-03-24T05:55:55.831Z,4.49
2024-03-24T05:56:55.802Z,4.47
2024-03-24T05:57:55.837Z,4.49
2024-03-24T05:58:55.812Z,4.49
2024-03-24T05:59:55.826Z,4.49
2024-03-24T06:00:55.774Z,4.51
2024-03-24T06:01:55.789Z,4.56
2024-03-24T06:02:55.756Z,4.59
2024-03-24T06:03:55.777Z,4.64
2024-03-24T06:04:55.723Z,4.69
2024-03-24T06:05:55.716Z,4.75
2024-03-24T06:06:55.711Z,4.80
2024-03-24T06:07:55.716Z,4.84
2024-03-24T06:08:55.728Z,4.84
2024-03-24T06:09:55.669Z,4.80
2024-03-24T06:10:55.654Z,4.80
2024-03-24T06:11:55.644Z,4.79
2024-03-24T06:12:55.659Z,4.83
2024-03-24T06:13:55.672Z,4.88
2024-03-24T06:14:55.666Z,4.91
2024-03-24T06:15:55.626Z,4.91
2024-03-24T06:16:55.640Z,4.96
2024-03-24T06:17:55.662Z,4.96
2024-03-24T06:18:55.585Z,4.99
2024-03-24T06:19:55.587Z,5.04
2024-03-24T06:20:55.565Z,5.11
2024-03-24T06:21:55.570Z,5.17
2024-03-24T06:22:55.568Z,5.24
2024-03-24T06:23:55.544Z,5.32
2024-03-24T06:24:55.526Z,5.38
2024-03-24T06:25:55.536Z,5.44
2024-03-24T06:26:55.531Z,5.47
2024-03-24T06:27:55.512Z,5.45
2024-03-24T06:28:55.490Z,5.47
2024-03-24T06:29:55.476Z,5.47
2024-03-24T06:30:55.476Z,5.44
2024-03-24T06:31:55.529Z,5.44
2024-03-24T06:32:55.444Z,5.44
2024-03-24T06:33:55.468Z,5.42
2024-03-24T06:34:55.452Z,5.41
2024-03-24T06:35:55.466Z,5.44
2024-03-24T06:36:55.479Z,5.44
2024-03-24T06:37:55.408Z,5.42
2024-03-24T06:38:55.426Z,5.42
2024-03-24T06:39:55.429Z,5.45
2024-03-24T06:40:55.398Z,5.45
2024-03-24T06:41:55.420Z,5.44
2024-03-24T06:42:55.361Z,5.47
2024-03-24T06:43:55.379Z,5.59
2024-03-24T06:44:55.370Z,5.83
2024-03-24T06:45:55.377Z,5.96
2024-03-24T06:46:55.359Z,6.02
2024-03-24T06:47:55.316Z,6.06
2024-03-24T06:48:55.319Z,6.20
2024-03-24T06:49:55.291Z,6.27
2024-03-24T06:50:55.301Z,6.36
2024-03-24T06:51:55.278Z,6.42
2024-03-24T06:52:55.288Z,6.50
2024-03-24T06:53:55.258Z,6.63
2024-03-24T06:54:55.291Z,6.76
2024-03-24T06:55:55.258Z,7.00
2024-03-24T06:56:55.225Z,7.24
2024-03-24T06:57:55.270Z,7.52
2024-03-24T06:58:55.207Z,7.74
2024-03-24T06:59:55.228Z,7.95
2024-03-24T07:00:55.213Z,8.04
2024-03-24T07:01:55.194Z,8.21
2024-03-24T07:02:55.177Z,8.32
2024-03-24T07:03:55.180Z,8.63
2024-03-24T07:04:55.189Z,8.96
2024-03-24T07:05:55.167Z,9.27
2024-03-24T07:06:55.127Z,9.56
2024-03-24T07:07:55.131Z,9.89
2024-03-24T07:08:55.137Z,10.24
2024-03-24T07:09:55.128Z,10.65
2024-03-24T07:10:55.094Z,10.91
2024-03-24T07:11:55.082Z,11.12
2024-03-24T07:12:55.070Z,11.36
2024-03-24T07:13:55.111Z,11.66
2024-03-24T07:14:55.064Z,12.03
2024-03-24T07:15:55.045Z,12.21
2024-03-24T07:16:55.101Z,12.34
2024-03-24T07:17:55.022Z,12.85
2024-03-24T07:18:55.039Z,12.88
2024-03-24T07:19:55.008Z,12.98
2024-03-24T07:20:55.045Z,13.07
2024-03-24T07:21:55.037Z,13.36
2024-03-24T07:22:55.001Z,13.28
2024-03-24T07:23:55.001Z,13.07
2024-03-24T07:24:54.978Z,13.06
2024-03-24T07:25:54.958Z,12.58
2024-03-24T07:26:54.966Z,12.15
2024-03-24T07:27:54.965Z,11.70
2024-03-24T07:28:54.933Z,11.33
2024-03-24T07:29:54.936Z,11.42
2024-03-24T07:32:32.363Z,11.82
2024-03-24T07:33:34.316Z,12.03
2024-03-24T07:34:33.333Z,12.54
2024-03-24T07:35:33.273Z,12.66
2024-03-24T07:36:33.274Z,13.16
2024-03-24T07:37:33.321Z,13.84
2024-03-24T07:38:33.243Z,14.27
2024-03-24T07:39:33.231Z,14.53
2024-03-24T07:40:33.235Z,14.71
2024-03-24T07:41:33.254Z,15.04
2024-03-24T07:42:33.232Z,15.40
2024-03-24T07:43:33.212Z,15.81
2024-03-24T07:44:33.191Z,16.08
2024-03-24T07:45:33.266Z,16.32
2024-03-24T07:46:33.203Z,16.55
2024-03-24T07:47:33.167Z,16.67
2024-03-24T07:48:33.165Z,16.75
2024-03-24T07:49:33.191Z,16.82
2024-03-24T07:50:33.283Z,16.98
2024-03-24T07:51:33.179Z,17.25
2024-03-24T07:52:33.143Z,17.57
2024-03-24T07:53:33.097Z,16.55
2024-03-24T07:54:33.110Z,16.36
2024-03-24T07:55:33.121Z,15.98
2024-03-24T07:56:33.141Z,16.13
2024-03-24T07:57:33.075Z,16.18
2024-03-24T07:58:33.053Z,16.44
2024-03-24T07:59:33.060Z,16.87
2024-03-24T08:00:33.118Z,16.78
2024-03-24T08:01:33.037Z,17.03
2024-03-24T08:02:33.032Z,16.72
2024-03-24T08:03:33.029Z,15.77
2024-03-24T08:04:33.009Z,14.87
2024-03-24T08:05:34.699Z,14.20
2024-03-24T08:06:32.989Z,13.59
2024-03-24T08:07:32.981Z,13.27
2024-03-24T08:08:32.960Z,12.62
2024-03-24T08:09:33.000Z,12.16
2024-03-24T08:10:33.001Z,12.11
2024-03-24T08:11:32.974Z,12.08
2024-03-24T08:12:32.930Z,12.12
2024-03-24T08:13:32.931Z,12.13
2024-03-24T08:14:32.949Z,12.00
2024-03-24T08:15:32.958Z,11.94
2024-03-24T08:16:32.910Z,11.75
2024-03-24T08:17:32.906Z,11.64
2024-03-24T08:18:32.897Z,11.51
2024-03-24T08:19:32.897Z,11.66
2024-03-24T08:20:32.860Z,12.55
2024-03-24T08:21:32.867Z,12.70
2024-03-24T08:22:32.836Z,12.41
2024-03-24T08:23:32.840Z,12.31
2024-03-24T08:24:32.902Z,12.12
2024-03-24T08:25:32.837Z,11.84
2024-03-24T08:26:32.892Z,11.82
2024-03-24T08:27:32.812Z,11.82
2024-03-24T08:28:32.822Z,12.22
2024-03-24T08:29:32.804Z,12.48
2024-03-24T08:30:32.798Z,12.63
2024-03-24T08:31:32.766Z,13.75
2024-03-24T08:32:32.870Z,13.94
2024-03-24T08:33:32.769Z,13.87
2024-03-24T08:34:32.801Z,14.44
2024-03-24T08:35:32.723Z,14.34
2024-03-24T08:36:32.743Z,14.26
2024-03-24T08:37:32.726Z,13.59
2024-03-24T08:38:32.726Z,13.46
2024-03-24T08:39:32.721Z,13.43
2024-03-24T08:40:32.738Z,13.12
2024-03-24T08:41:32.696Z,13.29
2024-03-24T08:42:32.680Z,12.95
2024-03-24T08:43:32.690Z,12.80
2024-03-24T08:44:32.648Z,12.87
2024-03-24T08:45:32.721Z,13.59
2024-03-24T08:46:32.639Z,13.19
2024-03-24T08:47:32.710Z,12.81
2024-03-24T08:48:38.422Z,13.27
2024-03-24T08:49:34.767Z,14.20
2024-03-24T08:50:32.631Z,14.16
2024-03-24T08:51:32.591Z,13.98
2024-03-24T08:52:35.304Z,13.96
2024-03-24T08:53:32.666Z,13.62
2024-03-24T08:54:33.490Z,13.36
2024-03-24T08:55:32.571Z,13.98
2024-03-24T08:56:32.588Z,14.56
2024-03-24T08:57:32.553Z,14.78
2024-03-24T08:58:32.519Z,14.12
2024-03-24T08:59:33.366Z,13.68
2024-03-24T09:00:32.500Z,14.26
2024-03-24T09:01:32.512Z,14.20
2024-03-24T09:02:32.503Z,14.17
2024-03-24T09:03:32.450Z,14.46
2024-03-24T09:04:32.444Z,15.30
2024-03-24T09:05:32.440Z,15.88
2024-03-24T09:06:32.461Z,15.22
2024-03-24T09:07:32.528Z,15.07
2024-03-24T09:08:32.458Z,14.53
2024-03-24T09:09:32.418Z,14.02
2024-03-24T09:10:32.481Z,13.65
2024-03-24T09:11:32.467Z,13.51
2024-03-24T09:12:32.434Z,13.62
2024-03-24T09:13:32.394Z,13.28
2024-03-24T09:14:32.358Z,12.85
2024-03-24T09:15:32.378Z,12.54
2024-03-24T09:16:34.933Z,12.44
2024-03-24T09:17:32.331Z,12.08
2024-03-24T09:18:32.315Z,11.85
2024-03-24T09:19:32.327Z,11.64
2024-03-24T09:20:32.366Z,11.48
2024-03-24T09:21:32.307Z,11.46
2024-03-24T09:22:32.296Z,11.44
2024-03-24T09:23:32.282Z,11.39
2024-03-24T09:24:32.290Z,11.38
2024-03-24T09:25:32.312Z,11.33
2024-03-24T09:26:32.241Z,11.30
2024-03-24T09:27:32.248Z,11.27
2024-03-24T09:28:32.237Z,11.26
2024-03-24T09:29:32.232Z,11.13
2024-03-24T09:30:32.233Z,11.06
2024-03-24T09:31:32.225Z,11.06
2024-03-24T09:32:32.204Z,11.06
2024-03-24T09:33:32.212Z,11.08
2024-03-24T09:34:32.217Z,10.99
2024-03-24T09:35:32.178Z,10.93
2024-03-24T09:36:32.196Z,10.86
2024-03-24T09:37:32.271Z,10.80
2024-03-24T09:38:33.015Z,10.81
2024-03-24T09:39:32.153Z,10.84
2024-03-24T09:40:32.119Z,10.72
2024-03-24T09:41:32.149Z,10.70
2024-03-24T09:42:32.115Z,10.76
2024-03-24T09:43:32.119Z,11.06
2024-03-24T09:44:32.086Z,11.63
2024-03-24T09:45:32.092Z,11.97
2024-03-24T09:46:32.100Z,12.56
2024-03-24T09:47:32.093Z,12.79
2024-03-24T09:48:32.074Z,13.54
2024-03-24T09:49:32.039Z,14.23
2024-03-24T09:50:32.072Z,14.57
2024-03-24T09:51:32.025Z,14.31
2024-03-24T09:52:32.030Z,14.04
2024-03-24T09:53:32.019Z,14.02
2024-03-24T09:54:32.031Z,13.96
2024-03-24T09:55:31.976Z,14.01
2024-03-24T09:56:31.991Z,13.55
2024-03-24T09:57:31.978Z,13.31
2024-03-24T09:58:31.952Z,13.16
2024-03-24T09:59:31.965Z,13.09
2024-03-24T10:00:31.936Z,13.10
2024-03-24T10:01:31.935Z,13.35
2024-03-24T10:02:31.938Z,13.66
2024-03-24T10:03:31.918Z,14.17
2024-03-24T10:04:32.004Z,14.24
2024-03-24T10:05:31.882Z,13.88
2024-03-24T10:06:31.885Z,13.63
2024-03-24T10:07:31.892Z,13.19
2024-03-24T10:08:31.857Z,13.03
2024-03-24T10:09:31.879Z,12.70
2024-03-24T10:10:31.845Z,12.55
2024-03-24T10:11:31.847Z,12.40
2024-03-24T10:12:31.838Z,12.18
2024-03-24T10:13:31.810Z,11.97
2024-03-24T10:14:31.818Z,11.70
2024-03-24T10:15:31.784Z,11.57
2024-03-24T10:16:31.833Z,11.46
2024-03-24T10:17:31.776Z,11.35
2024-03-24T10:18:31.776Z,11.19
2024-03-24T10:19:31.787Z,11.06
2024-03-24T10:20:31.804Z,11.03
2024-03-24T10:21:31.753Z,11.02
2024-03-24T10:22:31.736Z,11.03
2024-03-24T10:23:31.747Z,11.02
2024-03-24T10:24:31.722Z,10.95
2024-03-24T10:25:31.746Z,10.88
2024-03-24T10:26:31.689Z,10.86
2024-03-24T10:27:31.675Z,10.86
2024-03-24T10:28:31.678Z,10.80
2024-03-24T10:29:31.668Z,10.70
2024-03-24T10:30:31.686Z,10.68
2024-03-24T10:31:31.668Z,10.66
2024-03-24T10:32:31.659Z,10.66
2024-03-24T10:33:31.628Z,10.57
2024-03-24T10:34:31.632Z,10.57
2024-03-24T10:35:31.603Z,10.49
2024-03-24T10:36:31.603Z,10.49
2024-03-24T10:37:31.601Z,10.62
2024-03-24T10:38:31.579Z,10.66
2024-03-24T10:39:31.655Z,10.78
2024-03-24T10:40:31.573Z,10.95
2024-03-24T10:41:31.541Z,11.03
2024-03-24T10:42:31.536Z,11.11
2024-03-24T10:43:31.567Z,11.19
2024-03-24T10:44:31.551Z,11.27
2024-03-24T10:45:31.537Z,11.36
2024-03-24T10:46:31.525Z,11.42
2024-03-24T10:47:31.517Z,11.49
2024-03-24T10:48:31.510Z,11.57
2024-03-24T10:49:31.469Z,11.66
2024-03-24T10:50:31.500Z,11.67
2024-03-24T10:51:31.497Z,11.56
2024-03-24T10:52:31.489Z,11.53
2024-03-24T10:53:31.491Z,11.53
2024-03-24T10:54:31.432Z,11.45
2024-03-24T10:55:31.458Z,11.41
2024-03-24T10:56:31.448Z,11.39
2024-03-24T10:57:31.431Z,11.23
2024-03-24T10:58:31.437Z,11.16
2024-03-24T10:59:31.418Z,11.16
2024-03-24T11:00:31.398Z,11.16
2024-03-24T11:01:31.389Z,11.12
2024-03-24T11:02:31.379Z,11.11
2024-03-24T11:03:31.365Z,11.08
2024-03-24T11:04:31.344Z,11.05
2024-03-24T11:05:31.315Z,11.01
2024-03-24T11:06:31.353Z,10.99
2024-03-24T11:07:31.357Z,10.95
2024-03-24T11:08:31.325Z,10.93
2024-03-24T11:09:31.373Z,10.93
2024-03-24T11:10:31.360Z,10.94
2024-03-24T11:11:31.317Z,10.93
2024-03-24T11:12:31.366Z,10.94
2024-03-24T11:13:31.379Z,10.93
2024-03-24T11:14:31.282Z,10.91
2024-03-24T11:15:31.289Z,10.88
2024-03-24T11:16:31.364Z,10.84
2024-03-24T11:17:31.329Z,10.81
2024-03-24T11:18:31.323Z,10.70
2024-03-24T11:19:31.390Z,10.63
2024-03-24T11:20:31.215Z,10.63
2024-03-24T11:21:31.342Z,10.62
2024-03-24T11:22:31.200Z,10.60
2024-03-24T11:23:31.170Z,10.57
2024-03-24T11:24:33.027Z,10.46
2024-03-24T11:25:31.251Z,10.32
2024-03-24T11:26:31.304Z,10.20
2024-03-24T11:27:31.258Z,10.10
2024-03-24T11:28:31.138Z,9.92
2024-03-24T11:29:31.111Z,9.73
2024-03-24T11:30:31.127Z,9.59
2024-03-24T11:31:31.134Z,9.48
2024-03-24T11:32:31.073Z,9.31
2024-03-24T11:33:31.062Z,9.24
2024-03-24T11:34:31.112Z,9.19
2024-03-24T11:35:31.080Z,9.19
2024-03-24T11:36:31.031Z,9.15
2024-03-24T11:37:31.069Z,9.16
2024-03-24T11:38:31.024Z,9.16
2024-03-24T11:39:31.028Z,9.19
2024-03-24T11:40:31.061Z,9.20
2024-03-24T11:41:31.019Z,9.23
2024-03-24T11:42:31.017Z,9.30
2024-03-24T11:43:30.998Z,9.34
2024-03-24T11:44:30.984Z,9.37
2024-03-24T11:45:30.995Z,9.37
2024-03-24T11:46:31.000Z,9.41
2024-03-24T11:47:30.951Z,9.45
2024-03-24T11:48:30.942Z,9.41
2024-03-24T11:49:31.000Z,9.41
2024-03-24T11:50:30.915Z,9.37
2024-03-24T11:51:30.915Z,9.34
2024-03-24T11:52:30.922Z,9.30
2024-03-24T11:53:30.903Z,9.27
2024-03-24T11:54:30.969Z,9.27
2024-03-24T11:55:30.943Z,9.32
2024-03-24T11:56:30.890Z,9.35
2024-03-24T11:57:30.858Z,9.42
2024-03-24T11:58:30.913Z,9.48
2024-03-24T11:59:30.835Z,9.44
2024-03-24T12:00:30.838Z,9.42
2024-03-24T12:01:30.836Z,9.42
2024-03-24T12:02:30.799Z,9.40
2024-03-24T12:03:30.907Z,9.42
2024-03-24T12:04:30.818Z,9.41
2024-03-24T12:05:30.792Z,9.38
2024-03-24T12:06:30.749Z,9.32
2024-03-24T12:07:30.807Z,9.27
2024-03-24T12:08:30.791Z,9.30
2024-03-24T12:09:30.730Z,9.32
2024-03-24T12:10:30.807Z,9.27
2024-03-24T12:11:30.712Z,9.24
2024-03-24T12:12:30.733Z,9.15
2024-03-24T12:13:30.743Z,9.06
2024-03-24T12:14:30.688Z,9.01
2024-03-24T12:15:30.695Z,8.97
2024-03-24T12:16:30.708Z,8.91
2024-03-24T12:17:30.697Z,8.89
2024-03-24T12:18:30.666Z,8.89
2024-03-24T12:19:30.670Z,8.89
2024-03-24T12:20:30.648Z,8.88
2024-03-24T12:21:30.659Z,8.85
2024-03-24T12:22:30.633Z,8.88
2024-03-24T12:23:30.619Z,8.88
2024-03-24T12:24:30.591Z,8.88
2024-03-24T12:25:30.629Z,8.88
2024-03-24T12:26:30.596Z,8.96
2024-03-24T12:27:30.570Z,8.93
2024-03-24T12:28:30.608Z,8.94
2024-03-24T12:29:30.586Z,9.00
2024-03-24T12:30:30.530Z,9.01
2024-03-24T12:31:30.557Z,9.06
2024-03-24T12:32:30.522Z,9.15
2024-03-24T12:33:30.510Z,9.20
2024-03-24T12:34:30.536Z,9.23
2024-03-24T12:35:30.516Z,9.26
2024-03-24T12:36:30.512Z,9.27
2024-03-24T12:37:30.505Z,9.23
2024-03-24T12:38:30.461Z,9.17
2024-03-24T12:39:30.455Z,9.15
2024-03-24T12:40:30.473Z,9.10
2024-03-24T12:41:30.425Z,9.03
2024-03-24T12:42:30.447Z,8.98
2024-03-24T12:43:30.405Z,8.94
2024-03-24T12:44:30.401Z,8.89
2024-03-24T12:45:30.407Z,8.83
2024-03-24T12:46:30.404Z,8.86
2024-03-24T12:47:30.367Z,8.86
2024-03-24T12:48:30.366Z,8.88
2024-03-24T12:49:50.764Z,8.85
2024-03-24T12:50:39.176Z,8.78
2024-03-24T12:51:30.332Z,8.73
2024-03-24T12:52:30.332Z,8.70
2024-03-24T12:53:30.326Z,8.73
2024-03-24T12:54:30.339Z,8.71
2024-03-24T12:55:30.339Z,8.73
2024-03-24T12:56:30.331Z,8.73
2024-03-24T12:57:30.286Z,8.70
2024-03-24T12:58:30.296Z,8.65
2024-03-24T12:59:30.283Z,8.58
2024-03-24T13:00:30.249Z,8.58
2024-03-24T13:01:30.261Z,8.54
2024-03-24T13:02:30.272Z,8.50
2024-03-24T13:03:30.257Z,8.47
2024-03-24T13:04:30.237Z,8.43
2024-03-24T13:05:30.216Z,8.42
2024-03-24T13:06:30.202Z,8.43
2024-03-24T13:07:30.201Z,8.42
2024-03-24T13:08:30.216Z,8.40
2024-03-24T13:09:30.202Z,8.40
2024-03-24T13:10:30.211Z,8.39